createdAt,value
2018-04-16T16:06:39.124Z,1013.62
2018-04-16T16:07:38.887Z,1013.66
2018-04-16T16:08:38.855Z,1013.67
2018-04-16T16:09:38.825Z,1013.70
2018-04-16T16:10:38.798Z,1013.75
2018-04-16T16:11:38.767Z,1013.76
2018-04-16T16:12:38.739Z,1013.77
2018-04-16T16:13:38.712Z,1013.81
2018-04-16T16:14:38.686Z,1013.81
2018-04-16T16:15:38.657Z,1013.79
2018-04-16T16:16:38.628Z,1013.82
2018-04-16T16:17:38.614Z,1013.81
2018-04-16T16:18:38.576Z,1013.84
2018-04-16T16:19:38.549Z,1013.88
2018-04-16T16:20:38.525Z,1013.85
2018-04-16T16:21:38.524Z,1013.84
2018-04-16T16:22:38.475Z,1013.83
2018-04-16T16:23:38.449Z,1013.84
2018-04-16T16:24:38.426Z,1013.89
2018-04-16T16:25:38.398Z,1013.92
2018-04-16T16:26:38.374Z,1013.92
2018-04-16T16:27:38.352Z,1013.90
2018-04-16T16:28:38.346Z,1013.93
2018-04-16T16:29:38.303Z,1013.93
2018-04-16T16:30:38.274Z,1013.95
2018-04-16T16:31:38.249Z,1013.96
2018-04-16T16:32:38.225Z,1013.96
2018-04-16T16:33:38.225Z,1013.96
2018-04-16T16:34:38.229Z,1014.01
2018-04-16T16:35:38.158Z,1014.02
2018-04-16T16:36:38.127Z,1014.00
2018-04-16T16:37:38.109Z,1014.02
2018-04-16T16:38:38.080Z,1014.02
2018-04-16T16:39:38.055Z,1014.04
2018-04-16T16:40:38.031Z,1013.98
2018-04-16T16:41:38.011Z,1014.04
2018-04-16T16:42:37.984Z,1014.07
2018-04-16T16:43:37.959Z,1014.07
2018-04-16T16:44:37.938Z,1014.06
2018-04-16T16:45:37.912Z,1014.04
2018-04-16T16:46:37.889Z,1014.07
2018-04-16T16:47:37.864Z,1014.07
2018-04-16T16:48:37.841Z,1014.09
2018-04-16T16:49:37.818Z,1014.10
2018-04-16T16:50:37.794Z,1014.12
2018-04-16T16:51:37.769Z,1014.15
2018-04-16T16:52:37.747Z,1014.15
2018-04-16T16:53:37.723Z,1014.16
2018-04-16T16:54:37.700Z,1014.21
2018-04-16T16:55:37.684Z,1014.20
2018-04-16T16:56:37.662Z,1014.29
2018-04-16T16:57:37.628Z,1014.26
2018-04-16T16:58:37.608Z,1014.28
2018-04-16T16:59:37.592Z,1014.28
2018-04-16T17:00:37.561Z,1014.21
2018-04-16T17:01:37.533Z,1014.31
2018-04-16T17:02:37.572Z,1014.28
2018-04-16T17:03:37.486Z,1014.27
2018-04-16T17:04:37.461Z,1014.28
2018-04-16T17:05:37.439Z,1014.34
2018-04-16T17:06:37.418Z,1014.39
2018-04-16T17:07:37.395Z,1014.44
2018-04-16T17:08:37.371Z,1014.44
2018-04-16T17:09:37.344Z,1014.47
2018-04-16T17:10:37.324Z,1014.47
2018-04-16T17:11:37.298Z,1014.44
2018-04-16T17:12:37.272Z,1014.48
2018-04-16T17:13:37.248Z,1014.49
2018-04-16T17:14:37.228Z,1014.51
2018-04-16T17:15:37.204Z,1014.52
2018-04-16T17:16:37.177Z,1014.49
2018-04-16T17:17:37.152Z,1014.57
2018-04-16T17:18:37.128Z,1014.54
2018-04-16T17:19:37.104Z,1014.60
2018-04-16T17:20:37.081Z,1014.63
2018-04-16T17:21:37.057Z,1014.63
2018-04-16T17:22:37.034Z,1014.65
2018-04-16T17:23:37.017Z,1014.66
2018-04-16T17:24:36.986Z,1014.71
2018-04-16T17:25:36.989Z,1014.77
2018-04-16T17:26:36.938Z,1014.77
2018-04-16T17:27:36.914Z,1014.77
2018-04-16T17:28:36.891Z,1014.77
2018-04-16T17:29:36.867Z,1014.78
2018-04-16T17:30:36.845Z,1014.81
2018-04-16T17:31:36.839Z,1014.80
2018-04-16T17:32:36.795Z,1014.78
2018-04-16T17:33:36.777Z,1014.82
2018-04-16T17:34:36.748Z,1014.78
2018-04-16T17:35:36.723Z,1014.81
2018-04-16T17:36:36.703Z,1014.77
2018-04-16T17:37:36.677Z,1014.87
2018-04-16T17:38:36.653Z,1014.86
2018-04-16T17:39:36.628Z,1014.91
2018-04-16T17:40:36.604Z,1014.88
2018-04-16T17:41:36.580Z,1014.94
2018-04-16T17:42:36.557Z,1014.97
2018-04-16T17:43:36.531Z,1014.86
2018-04-16T17:44:36.515Z,1014.93
2018-04-16T17:45:36.485Z,1014.90
2018-04-16T17:46:36.462Z,1014.91
2018-04-16T17:47:36.437Z,1014.92
2018-04-16T17:48:36.415Z,1014.99
2018-04-16T17:49:36.390Z,1014.99
2018-04-16T17:50:36.369Z,1014.99
2018-04-16T17:51:36.344Z,1014.96
2018-04-16T17:52:36.316Z,1014.99
2018-04-16T17:53:36.292Z,1015.02
2018-04-16T17:54:36.269Z,1015.04
2018-04-16T17:55:36.244Z,1015.14
2018-04-16T17:56:36.221Z,1015.09
2018-04-16T17:57:36.197Z,1015.15
2018-04-16T17:58:36.174Z,1015.18
2018-04-16T17:59:36.146Z,1015.20
2018-04-16T18:00:36.123Z,1015.16
2018-04-16T18:01:36.098Z,1015.18
2018-04-16T18:02:36.078Z,1015.17
2018-04-16T18:03:36.050Z,1015.19
2018-04-16T18:04:36.103Z,1015.18
2018-04-16T18:05:36.002Z,1015.18
2018-04-16T18:06:35.977Z,1015.18
2018-04-16T18:07:35.953Z,1015.19
2018-04-16T18:08:35.930Z,1015.11
2018-04-16T18:09:35.904Z,1015.12
2018-04-16T18:10:35.881Z,1015.18
2018-04-16T18:11:35.856Z,1015.28
2018-04-16T18:12:35.830Z,1015.37
2018-04-16T18:13:35.805Z,1015.38
2018-04-16T18:14:35.809Z,1015.42
2018-04-16T18:15:35.771Z,1015.42
2018-04-16T18:16:35.872Z,1015.45
2018-04-16T18:17:35.711Z,1015.51
2018-04-16T18:18:35.681Z,1015.51
2018-04-16T18:19:35.657Z,1015.52
2018-04-16T18:20:35.631Z,1015.59
2018-04-16T18:21:35.607Z,1015.58
2018-04-16T18:22:35.584Z,1015.60
2018-04-16T18:23:35.559Z,1015.63
2018-04-16T18:24:35.535Z,1015.65
2018-04-16T18:25:35.545Z,1015.66
2018-04-16T18:26:35.483Z,1015.65
2018-04-16T18:27:35.458Z,1015.76
2018-04-16T18:28:35.432Z,1015.72
2018-04-16T18:29:35.408Z,1015.81
2018-04-16T18:30:35.384Z,1015.83
2018-04-16T18:31:35.358Z,1015.83
2018-04-16T18:32:35.333Z,1015.85
2018-04-16T18:33:35.308Z,1015.83
2018-04-16T18:34:35.284Z,1015.84
2018-04-16T18:35:35.258Z,1015.84
2018-04-16T18:36:35.233Z,1015.84
2018-04-16T18:37:35.209Z,1015.87
2018-04-16T18:38:35.184Z,1015.88
2018-04-16T18:39:35.158Z,1015.93
2018-04-16T18:40:35.133Z,1015.89
2018-04-16T18:41:35.153Z,1015.93
2018-04-16T18:42:35.087Z,1015.96
2018-04-16T18:43:35.060Z,1016.03
2018-04-16T18:44:35.045Z,1015.97
2018-04-16T18:45:35.007Z,1016.05
2018-04-16T18:46:34.983Z,1016.01
2018-04-16T18:47:34.957Z,1016.11
2018-04-16T18:48:34.931Z,1016.13
2018-04-16T18:49:34.907Z,1016.09
2018-04-16T18:50:34.887Z,1016.17
2018-04-16T18:51:34.855Z,1016.14
2018-04-16T18:52:34.831Z,1016.14
2018-04-16T18:53:34.805Z,1016.17
2018-04-16T18:54:34.781Z,1016.17
2018-04-16T18:55:34.758Z,1016.18
2018-04-16T18:56:34.729Z,1016.21
2018-04-16T18:57:34.710Z,1016.14
2018-04-16T18:58:34.680Z,1016.16
2018-04-16T18:59:34.654Z,1016.18
2018-04-16T19:00:34.632Z,1016.16
2018-04-16T19:01:34.604Z,1016.08
2018-04-16T19:02:34.579Z,1016.19
2018-04-16T19:03:34.552Z,1016.17
2018-04-16T19:04:34.553Z,1016.09
2018-04-16T19:05:34.507Z,1016.15
2018-04-16T19:06:34.477Z,1016.14
2018-04-16T19:07:34.523Z,1016.09
2018-04-16T19:08:34.426Z,1016.07
2018-04-16T19:09:34.406Z,1016.11
2018-04-16T19:10:34.377Z,1016.10
2018-04-16T19:11:34.354Z,1016.19
2018-04-16T19:12:34.329Z,1016.21
2018-04-16T19:13:34.300Z,1016.20
2018-04-16T19:14:34.274Z,1016.26
2018-04-16T19:15:34.326Z,1016.25
2018-04-16T19:16:34.230Z,1016.33
2018-04-16T19:17:34.198Z,1016.32
2018-04-16T19:18:34.177Z,1016.25
2018-04-16T19:19:34.146Z,1016.46
2018-04-16T19:20:34.123Z,1016.52
2018-04-16T19:21:34.099Z,1016.53
2018-04-16T19:22:34.071Z,1016.50
2018-04-16T19:23:34.049Z,1016.54
2018-04-16T19:24:34.019Z,1016.53
2018-04-16T19:25:33.995Z,1016.48
2018-04-16T19:26:33.968Z,1016.54
2018-04-16T19:27:33.942Z,1016.60
2018-04-16T19:28:33.917Z,1016.64
2018-04-16T19:29:33.894Z,1016.68
2018-04-16T19:30:33.866Z,1016.62
2018-04-16T19:31:33.840Z,1016.66
2018-04-16T19:32:33.814Z,1016.69
2018-04-16T19:33:33.789Z,1016.67
2018-04-16T19:34:33.764Z,1016.69
2018-04-16T19:35:33.737Z,1016.77
2018-04-16T19:36:33.713Z,1016.72
2018-04-16T19:37:33.689Z,1016.74
2018-04-16T19:38:33.661Z,1016.76
2018-04-16T19:39:33.635Z,1016.74
2018-04-16T19:40:33.609Z,1016.77
2018-04-16T19:41:33.585Z,1016.76
2018-04-16T19:42:33.558Z,1016.81
2018-04-16T19:43:33.534Z,1016.81
2018-04-16T19:44:33.509Z,1016.81
2018-04-16T19:45:33.482Z,1016.86
2018-04-16T19:46:33.456Z,1016.86
2018-04-16T19:47:33.435Z,1016.90
2018-04-16T19:48:33.405Z,1016.88
2018-04-16T19:49:33.380Z,1016.86
2018-04-16T19:50:33.355Z,1016.82
2018-04-16T19:51:33.328Z,1016.81
2018-04-16T19:52:33.304Z,1016.78
2018-04-16T19:53:33.299Z,1016.82
2018-04-16T19:54:33.252Z,1016.82
2018-04-16T19:55:33.227Z,1016.82
2018-04-16T19:56:33.203Z,1016.87
2018-04-16T19:57:33.176Z,1016.85
2018-04-16T19:58:33.151Z,1016.87
2018-04-16T19:59:33.125Z,1016.87
2018-04-16T20:00:33.100Z,1016.87
2018-04-16T20:01:33.074Z,1016.92
2018-04-16T20:02:33.049Z,1016.86
2018-04-16T20:03:33.024Z,1016.90
2018-04-16T20:04:32.999Z,1016.90
2018-04-16T20:05:32.973Z,1016.86
2018-04-16T20:06:32.952Z,1016.86
2018-04-16T20:07:32.923Z,1016.89
2018-04-16T20:08:32.898Z,1016.95
2018-04-16T20:09:32.875Z,1016.88
2018-04-16T20:10:32.862Z,1016.89
2018-04-16T20:11:32.823Z,1016.92
2018-04-16T20:12:32.802Z,1016.97
2018-04-16T20:13:32.772Z,1016.95
2018-04-16T20:14:32.746Z,1016.95
2018-04-16T20:15:32.719Z,1016.91
2018-04-16T20:16:32.694Z,1017.00
2018-04-16T20:17:32.669Z,1016.97
2018-04-16T20:18:32.644Z,1016.95
2018-04-16T20:19:32.619Z,1016.88
2018-04-16T20:20:32.593Z,1016.97
2018-04-16T20:21:32.567Z,1017.00
2018-04-16T20:22:32.548Z,1017.02
2018-04-16T20:23:32.516Z,1017.05
2018-04-16T20:24:32.491Z,1017.06
2018-04-16T20:25:32.466Z,1017.04
2018-04-16T20:26:32.441Z,1017.06
2018-04-16T20:27:32.415Z,1017.09
2018-04-16T20:28:32.390Z,1017.08
2018-04-16T20:29:32.368Z,1017.10
2018-04-16T20:30:32.339Z,1017.15
2018-04-16T20:31:32.312Z,1017.13
2018-04-16T20:32:32.287Z,1017.12
2018-04-16T20:33:32.262Z,1017.10
2018-04-16T20:34:32.236Z,1017.13
2018-04-16T20:35:32.212Z,1017.14
2018-04-16T20:36:32.185Z,1017.17
2018-04-16T20:37:32.160Z,1017.17
2018-04-16T20:38:32.142Z,1017.16
2018-04-16T20:39:32.108Z,1017.16
2018-04-16T20:40:32.084Z,1017.15
2018-04-16T20:41:32.057Z,1017.17
2018-04-16T20:42:32.033Z,1017.25
2018-04-16T20:43:32.006Z,1017.23
2018-04-16T20:44:31.982Z,1017.26
2018-04-16T20:45:31.957Z,1017.28
2018-04-16T20:46:31.929Z,1017.30
2018-04-16T20:47:31.908Z,1017.28
2018-04-16T20:48:31.879Z,1017.29
2018-04-16T20:49:31.854Z,1017.31
2018-04-16T20:50:31.826Z,1017.29
2018-04-16T20:51:31.806Z,1017.30
2018-04-16T20:52:31.780Z,1017.27
2018-04-16T20:53:31.748Z,1017.27
2018-04-16T20:54:31.723Z,1017.29
2018-04-16T20:55:31.698Z,1017.31
2018-04-16T20:56:31.673Z,1017.34
2018-04-16T20:57:31.645Z,1017.35
2018-04-16T20:58:31.620Z,1017.37
2018-04-16T20:59:31.630Z,1017.42
2018-04-16T21:00:31.569Z,1017.42
2018-04-16T21:01:31.542Z,1017.36
2018-04-16T21:02:31.521Z,1017.39
2018-04-16T21:03:31.489Z,1017.38
2018-04-16T21:04:31.467Z,1017.44
2018-04-16T21:05:31.439Z,1017.48
2018-04-16T21:06:31.412Z,1017.43
2018-04-16T21:07:31.393Z,1017.48
2018-04-16T21:08:31.365Z,1017.44
2018-04-16T21:09:31.342Z,1017.50
2018-04-16T21:10:31.308Z,1017.47
2018-04-16T21:11:31.281Z,1017.51
2018-04-16T21:12:31.256Z,1017.48
2018-04-16T21:13:31.230Z,1017.58
2018-04-16T21:14:31.279Z,1017.59
2018-04-16T21:15:31.179Z,1017.55
2018-04-16T21:16:31.151Z,1017.58
2018-04-16T21:17:31.131Z,1017.64
2018-04-16T21:18:31.104Z,1017.63
2018-04-16T21:19:31.078Z,1017.61
2018-04-16T21:20:31.049Z,1017.62
2018-04-16T21:21:31.024Z,1017.62
2018-04-16T21:22:30.997Z,1017.64
2018-04-16T21:23:30.969Z,1017.64
2018-04-16T21:24:30.947Z,1017.63
2018-04-16T21:25:30.925Z,1017.66
2018-04-16T21:26:30.891Z,1017.67
2018-04-16T21:27:30.880Z,1017.70
2018-04-16T21:28:30.838Z,1017.72
2018-04-16T21:29:30.813Z,1017.74
2018-04-16T21:30:30.786Z,1017.72
2018-04-16T21:31:30.764Z,1017.79
2018-04-16T21:32:30.746Z,1017.79
2018-04-16T21:33:30.707Z,1017.85
2018-04-16T21:34:30.682Z,1017.88
2018-04-16T21:35:30.656Z,1017.86
2018-04-16T21:36:30.629Z,1017.86
2018-04-16T21:37:30.607Z,1017.91
2018-04-16T21:38:30.576Z,1017.93
2018-04-16T21:39:30.551Z,1017.95
2018-04-16T21:40:30.524Z,1017.99
2018-04-16T21:41:30.498Z,1017.99
2018-04-16T21:42:30.474Z,1018.02
2018-04-16T21:43:30.450Z,1017.98
2018-04-16T21:44:30.424Z,1017.97
2018-04-16T21:45:30.394Z,1017.93
2018-04-16T21:46:30.368Z,1017.98
2018-04-16T21:47:30.340Z,1018.00
2018-04-16T21:48:30.314Z,1017.97
2018-04-16T21:49:30.287Z,1017.98
2018-04-16T21:50:30.262Z,1017.97
2018-04-16T21:51:30.235Z,1018.00
2018-04-16T21:52:30.208Z,1017.99
2018-04-16T21:53:30.188Z,1017.96
2018-04-16T21:54:30.157Z,1017.98
2018-04-16T21:55:30.137Z,1018.00
2018-04-16T21:56:30.109Z,1018.01
2018-04-16T21:57:30.078Z,1018.00
2018-04-16T21:58:30.052Z,1018.03
2018-04-16T21:59:30.026Z,1018.03
2018-04-16T22:00:29.999Z,1018.07
2018-04-16T22:01:29.974Z,1018.09
2018-04-16T22:02:29.947Z,1018.09
2018-04-16T22:03:29.920Z,1018.06
2018-04-16T22:04:29.894Z,1018.04
2018-04-16T22:05:29.879Z,1018.10
2018-04-16T22:06:29.842Z,1018.12
2018-04-16T22:07:29.815Z,1018.15
2018-04-16T22:08:29.789Z,1018.14
2018-04-16T22:09:29.764Z,1018.17
2018-04-16T22:10:29.820Z,1018.15
2018-04-16T22:11:29.709Z,1018.16
2018-04-16T22:12:29.683Z,1018.21
2018-04-16T22:13:29.657Z,1018.19
2018-04-16T22:14:29.631Z,1018.18
2018-04-16T22:15:29.608Z,1018.20
2018-04-16T22:16:29.582Z,1018.19
2018-04-16T22:17:29.553Z,1018.16
2018-04-16T22:18:29.525Z,1018.15
2018-04-16T22:19:29.498Z,1018.17
2018-04-16T22:20:29.472Z,1018.17
2018-04-16T22:21:29.446Z,1018.26
2018-04-16T22:22:29.424Z,1018.28
2018-04-16T22:23:29.396Z,1018.24
2018-04-16T22:24:29.367Z,1018.20
2018-04-16T22:25:29.342Z,1018.21
2018-04-16T22:26:29.315Z,1018.19
2018-04-16T22:27:29.292Z,1018.24
2018-04-16T22:28:29.262Z,1018.21
2018-04-16T22:29:29.235Z,1018.16
2018-04-16T22:30:29.210Z,1018.22
2018-04-16T22:31:29.182Z,1018.21
2018-04-16T22:32:29.157Z,1018.26
2018-04-16T22:33:29.192Z,1018.28
2018-04-16T22:34:29.104Z,1018.24
2018-04-16T22:35:29.084Z,1018.33
2018-04-16T22:36:29.051Z,1018.31
2018-04-16T22:37:29.025Z,1018.31
2018-04-16T22:38:28.998Z,1018.32
2018-04-16T22:39:28.971Z,1018.31
2018-04-16T22:40:28.944Z,1018.35
2018-04-16T22:41:28.918Z,1018.33
2018-04-16T22:42:28.892Z,1018.36
2018-04-16T22:43:28.868Z,1018.37
2018-04-16T22:44:28.838Z,1018.36
2018-04-16T22:45:28.812Z,1018.40
2018-04-16T22:46:28.785Z,1018.39
2018-04-16T22:47:28.758Z,1018.43
2018-04-16T22:48:28.732Z,1018.43
2018-04-16T22:49:28.706Z,1018.47
2018-04-16T22:50:28.679Z,1018.46
2018-04-16T22:51:28.652Z,1018.51
2018-04-16T22:52:28.628Z,1018.59
2018-04-16T22:53:28.600Z,1018.63
2018-04-16T22:54:28.573Z,1018.63
2018-04-16T22:55:28.545Z,1018.63
2018-04-16T22:56:28.519Z,1018.61
2018-04-16T22:57:28.492Z,1018.58
2018-04-16T22:58:28.467Z,1018.58
2018-04-16T22:59:28.439Z,1018.55
2018-04-16T23:00:28.415Z,1018.60
2018-04-16T23:01:28.386Z,1018.63
2018-04-16T23:02:28.359Z,1018.57
2018-04-16T23:03:28.331Z,1018.60
2018-04-16T23:04:28.308Z,1018.63
2018-04-16T23:05:28.279Z,1018.59
2018-04-16T23:06:28.253Z,1018.60
2018-04-16T23:07:28.976Z,1018.62
2018-04-16T23:08:28.202Z,1018.63
2018-04-16T23:09:28.176Z,1018.60
2018-04-16T23:10:28.145Z,1018.61
2018-04-16T23:11:28.117Z,1018.63
2018-04-16T23:12:28.092Z,1018.65
2018-04-16T23:13:28.064Z,1018.66
2018-04-16T23:14:28.046Z,1018.68
2018-04-16T23:15:28.010Z,1018.69
2018-04-16T23:16:27.988Z,1018.70
2018-04-16T23:17:27.957Z,1018.73
2018-04-16T23:18:27.930Z,1018.78
2018-04-16T23:19:27.906Z,1018.79
2018-04-16T23:20:27.880Z,1018.78
2018-04-16T23:21:27.849Z,1018.79
2018-04-16T23:22:27.823Z,1018.80
2018-04-16T23:23:27.798Z,1018.81
2018-04-16T23:24:27.768Z,1018.82
2018-04-16T23:25:27.745Z,1018.87
2018-04-16T23:26:27.717Z,1018.87
2018-04-16T23:27:27.688Z,1018.91
2018-04-16T23:28:27.663Z,1018.93
2018-04-16T23:29:27.684Z,1018.87
2018-04-16T23:30:27.608Z,1018.91
2018-04-16T23:31:27.588Z,1018.90
2018-04-16T23:32:27.553Z,1018.92
2018-04-16T23:33:27.526Z,1018.96
2018-04-16T23:34:27.500Z,1018.96
2018-04-16T23:35:27.472Z,1018.97
2018-04-16T23:36:27.445Z,1018.99
2018-04-16T23:37:27.429Z,1019.00
2018-04-16T23:38:27.398Z,1019.00
2018-04-16T23:39:27.365Z,1019.04
2018-04-16T23:40:27.339Z,1019.03
2018-04-16T23:41:27.311Z,1019.03
2018-04-16T23:42:27.284Z,1019.06
2018-04-16T23:43:27.257Z,1019.01
2018-04-16T23:44:27.230Z,1019.05
2018-04-16T23:45:27.204Z,1019.03
2018-04-16T23:46:27.177Z,1019.02
2018-04-16T23:47:27.149Z,1019.04
2018-04-16T23:48:27.123Z,1019.02
2018-04-16T23:49:27.100Z,1019.07
2018-04-16T23:50:27.069Z,1019.09
2018-04-16T23:51:27.041Z,1019.02
2018-04-16T23:52:27.014Z,1019.04
2018-04-16T23:53:26.988Z,1019.08
2018-04-16T23:54:26.965Z,1019.06
2018-04-16T23:55:26.933Z,1019.07
2018-04-16T23:56:26.909Z,1019.07
2018-04-16T23:57:26.879Z,1019.07
2018-04-16T23:58:26.859Z,1019.09
2018-04-16T23:59:26.824Z,1019.13
